createdAt,value
2023-05-13T00:01:03.395Z,12.60
2023-05-13T00:03:30.935Z,12.60
2023-05-13T00:05:58.642Z,12.50
2023-05-13T00:08:26.064Z,12.50
2023-05-13T00:10:53.434Z,12.50
2023-05-13T00:13:21.301Z,12.40
2023-05-13T00:15:49.181Z,12.40
2023-05-13T00:18:16.733Z,12.40
2023-05-13T00:20:44.676Z,12.30
2023-05-13T00:23:12.455Z,12.20
2023-05-13T00:25:41.385Z,12.20
2023-05-13T00:28:08.808Z,12.20
2023-05-13T00:30:36.860Z,12.20
2023-05-13T00:33:04.666Z,12.20
2023-05-13T00:35:32.299Z,12.20
2023-05-13T00:37:59.780Z,12.30
2023-05-13T00:40:27.193Z,12.20
2023-05-13T00:42:55.003Z,12.20
2023-05-13T00:45:23.390Z,12.10
2023-05-13T00:47:51.842Z,12.10
2023-05-13T00:50:20.319Z,12.10
2023-05-13T00:52:50.745Z,12.00
2023-05-13T00:55:18.366Z,12.00
2023-05-13T00:57:45.694Z,12.00
2023-05-13T01:00:14.097Z,12.00
2023-05-13T01:03:27.914Z,12.10
2023-05-13T01:06:04.188Z,12.30
2023-05-13T01:08:49.948Z,12.40
2023-05-13T01:11:27.929Z,12.30
2023-05-13T01:14:22.802Z,12.20
2023-05-13T01:16:58.974Z,12.10
2023-05-13T01:19:50.872Z,12.10
2023-05-13T01:22:18.397Z,12.10
2023-05-13T01:24:46.133Z,12.10
2023-05-13T01:27:14.313Z,12.10
2023-05-13T01:29:41.952Z,12.10
2023-05-13T01:32:11.576Z,12.10
2023-05-13T01:34:40.798Z,12.20
2023-05-13T01:37:08.560Z,12.10
2023-05-13T01:39:39.128Z,12.10
2023-05-13T01:42:11.403Z,12.00
2023-05-13T01:44:39.105Z,11.80
2023-05-13T01:47:06.682Z,11.70
2023-05-13T01:49:34.186Z,11.60
2023-05-13T01:52:01.590Z,11.50
2023-05-13T01:54:29.724Z,11.50
2023-05-13T01:57:03.743Z,11.40
2023-05-13T01:59:31.437Z,11.30
2023-05-13T02:01:59.906Z,11.20
2023-05-13T02:04:27.805Z,11.10
2023-05-13T02:06:55.323Z,10.90
2023-05-13T02:09:23.715Z,10.90
2023-05-13T02:11:51.214Z,10.90
2023-05-13T02:14:18.733Z,10.80
2023-05-13T02:16:46.399Z,10.70
2023-05-13T02:19:14.130Z,10.70
2023-05-13T02:21:43.841Z,10.60
2023-05-13T02:24:11.874Z,10.60
2023-05-13T02:26:41.605Z,10.70
2023-05-13T02:29:09.402Z,10.70
2023-05-13T02:31:37.094Z,10.70
2023-05-13T02:34:04.630Z,10.80
2023-05-13T02:36:32.265Z,10.80
2023-05-13T02:39:00.172Z,10.80
2023-05-13T02:41:27.884Z,10.80
2023-05-13T02:43:55.426Z,10.80
2023-05-13T02:46:23.222Z,10.80
2023-05-13T02:48:50.860Z,10.70
2023-05-13T02:51:18.265Z,10.80
2023-05-13T02:53:45.972Z,10.90
2023-05-13T02:56:16.409Z,11.00
2023-05-13T02:58:44.140Z,11.10
2023-05-13T03:01:12.111Z,11.00
2023-05-13T03:03:40.212Z,11.00
2023-05-13T03:06:08.101Z,10.90
2023-05-13T03:08:35.460Z,10.90
2023-05-13T03:11:03.594Z,10.90
2023-05-13T03:13:31.204Z,11.00
2023-05-13T03:15:58.933Z,10.90
2023-05-13T03:18:28.818Z,10.90
2023-05-13T03:20:56.412Z,10.90
2023-05-13T03:23:23.883Z,10.90
2023-05-13T03:25:54.422Z,11.00
2023-05-13T03:28:21.941Z,11.10
2023-05-13T03:30:49.445Z,11.10
2023-05-13T03:33:19.401Z,11.00
2023-05-13T03:35:49.181Z,11.00
2023-05-13T03:38:19.551Z,11.00
2023-05-13T03:40:50.352Z,11.00
2023-05-13T03:43:18.042Z,11.00
2023-05-13T03:45:51.737Z,11.00
2023-05-13T03:48:21.771Z,11.00
2023-05-13T03:50:49.208Z,11.00
2023-05-13T03:53:18.711Z,11.00
2023-05-13T03:55:46.396Z,11.10
2023-05-13T03:58:16.459Z,11.00
2023-05-13T04:00:46.897Z,11.00
2023-05-13T04:03:16.539Z,11.10
2023-05-13T04:05:47.898Z,11.10
2023-05-13T04:08:15.844Z,11.10
2023-05-13T04:10:44.196Z,11.00
2023-05-13T04:13:11.995Z,11.20
2023-05-13T04:15:39.589Z,11.30
2023-05-13T04:18:07.543Z,11.50
2023-05-13T04:20:38.885Z,11.50
2023-05-13T04:23:07.051Z,11.60
2023-05-13T04:25:37.327Z,11.80
2023-05-13T04:28:05.632Z,12.00
2023-05-13T04:30:37.113Z,12.00
2023-05-13T04:33:04.954Z,12.20
2023-05-13T04:35:33.595Z,12.20
2023-05-13T04:38:04.834Z,12.50
2023-05-13T04:40:32.774Z,12.70
2023-05-13T04:43:06.410Z,13.00
2023-05-13T04:45:40.976Z,13.30
2023-05-13T04:48:13.775Z,13.50
2023-05-13T04:50:46.966Z,13.60
2023-05-13T04:53:15.928Z,13.80
2023-05-13T04:55:47.694Z,14.10
2023-05-13T04:58:15.041Z,14.30
2023-05-13T05:00:42.501Z,14.40
2023-05-13T05:03:09.868Z,14.60
2023-05-13T05:05:37.977Z,14.80
2023-05-13T05:08:06.250Z,15.00
2023-05-13T05:10:34.508Z,15.20
2023-05-13T05:13:02.507Z,15.40
2023-05-13T05:15:30.045Z,15.60
2023-05-13T05:18:00.583Z,15.80
2023-05-13T05:20:28.558Z,15.90
2023-05-13T05:22:59.739Z,15.90
2023-05-13T05:25:29.487Z,15.80
2023-05-13T05:27:57.335Z,15.80
2023-05-13T05:30:25.316Z,15.90
2023-05-13T05:32:59.893Z,16.00
2023-05-13T05:35:27.442Z,15.90
2023-05-13T05:37:56.589Z,16.00
2023-05-13T05:40:25.293Z,16.20
2023-05-13T05:42:52.907Z,16.30
2023-05-13T05:45:20.776Z,16.50
2023-05-13T05:48:13.774Z,16.40
2023-05-13T05:50:41.745Z,16.50
2023-05-13T05:53:11.156Z,16.50
2023-05-13T05:55:39.981Z,16.70
2023-05-13T05:58:10.890Z,16.90
2023-05-13T06:00:38.990Z,17.00
2023-05-13T06:03:06.648Z,17.10
2023-05-13T06:05:35.467Z,16.90
2023-05-13T06:08:02.729Z,17.00
2023-05-13T06:10:30.958Z,17.00
2023-05-13T06:12:58.540Z,17.10
2023-05-13T06:15:25.768Z,17.40
2023-05-13T06:17:52.969Z,17.50
2023-05-13T06:20:20.505Z,17.60
2023-05-13T06:22:48.177Z,17.70
2023-05-13T06:25:15.749Z,17.80
2023-05-13T06:27:42.877Z,17.90
2023-05-13T06:30:10.832Z,18.30
2023-05-13T06:32:50.267Z,18.40
2023-05-13T06:35:24.791Z,18.50
2023-05-13T06:37:52.067Z,18.40
2023-05-13T06:40:19.968Z,18.30
2023-05-13T06:42:47.791Z,18.70
2023-05-13T06:45:23.453Z,18.60
2023-05-13T06:47:51.947Z,18.80
2023-05-13T06:50:20.203Z,19.10
2023-05-13T06:52:47.920Z,19.40
2023-05-13T06:55:16.668Z,19.60
2023-05-13T06:57:46.734Z,19.40
2023-05-13T07:00:15.762Z,19.60
2023-05-13T07:02:43.247Z,19.30
2023-05-13T07:05:11.824Z,19.40
2023-05-13T07:07:39.074Z,19.80
2023-05-13T07:10:06.558Z,19.80
2023-05-13T07:12:33.932Z,19.60
2023-05-13T07:15:01.355Z,19.80
2023-05-13T07:17:28.872Z,20.20
2023-05-13T07:19:56.863Z,20.30
2023-05-13T07:22:24.526Z,20.40
2023-05-13T07:24:51.815Z,20.30
2023-05-13T07:27:18.935Z,20.20
2023-05-13T07:29:46.267Z,20.20
2023-05-13T07:32:13.780Z,20.60
2023-05-13T07:34:41.417Z,20.40
2023-05-13T07:37:08.629Z,20.30
2023-05-13T07:39:36.221Z,20.10
2023-05-13T07:42:04.052Z,20.30
2023-05-13T07:44:31.332Z,20.50
2023-05-13T07:46:58.586Z,20.50
2023-05-13T07:49:25.992Z,20.70
2023-05-13T07:51:53.182Z,21.00
2023-05-13T07:54:20.855Z,21.20
2023-05-13T07:56:48.137Z,21.40
2023-05-13T07:59:15.265Z,21.40
2023-05-13T08:01:43.249Z,21.60
2023-05-13T08:04:10.874Z,22.10
2023-05-13T08:06:38.400Z,22.20
2023-05-13T08:09:06.534Z,22.40
2023-05-13T08:11:33.976Z,22.50
2023-05-13T08:14:01.203Z,22.70
2023-05-13T08:16:28.449Z,22.90
2023-05-13T08:18:55.764Z,22.80
2023-05-13T08:21:23.082Z,22.90
2023-05-13T08:23:52.155Z,22.50
2023-05-13T08:26:19.648Z,22.60
2023-05-13T08:28:48.026Z,22.90
2023-05-13T08:31:15.505Z,23.30
2023-05-13T08:33:44.763Z,23.50
2023-05-13T08:36:11.962Z,23.40
2023-05-13T08:38:39.248Z,23.70
2023-05-13T08:41:07.758Z,23.80
2023-05-13T08:43:38.395Z,23.30
2023-05-13T08:46:10.208Z,22.70
2023-05-13T08:48:39.969Z,22.90
2023-05-13T08:51:08.496Z,23.00
2023-05-13T08:53:36.373Z,23.30
2023-05-13T08:56:05.643Z,23.60
2023-05-13T08:58:32.844Z,23.80
2023-05-13T09:01:00.020Z,23.20
2023-05-13T09:03:29.131Z,23.40
2023-05-13T09:05:56.458Z,23.10
2023-05-13T09:08:23.592Z,22.80
2023-05-13T09:10:50.918Z,22.90
2023-05-13T09:13:18.687Z,23.20
2023-05-13T09:15:45.940Z,23.30
2023-05-13T09:18:18.021Z,23.30
2023-05-13T09:20:46.817Z,23.40
2023-05-13T09:23:16.005Z,23.40
2023-05-13T09:25:43.448Z,23.60
2023-05-13T09:28:15.143Z,23.70
2023-05-13T09:30:46.235Z,24.10
2023-05-13T09:33:21.674Z,24.50
2023-05-13T09:35:53.733Z,24.40
2023-05-13T09:38:26.891Z,24.30
2023-05-13T09:40:56.440Z,24.40
2023-05-13T09:43:32.228Z,24.20
2023-05-13T09:46:04.964Z,24.30
2023-05-13T09:48:34.346Z,24.20
2023-05-13T09:51:01.953Z,24.10
2023-05-13T09:53:29.363Z,24.00
2023-05-13T09:55:57.988Z,24.00
2023-05-13T09:58:30.921Z,23.70
2023-05-13T10:00:58.861Z,24.10
2023-05-13T10:03:27.828Z,24.10
2023-05-13T10:05:55.282Z,24.40
2023-05-13T10:08:23.705Z,24.30
2023-05-13T10:10:55.665Z,24.40
2023-05-13T10:13:24.757Z,24.70
2023-05-13T10:15:54.973Z,24.50
2023-05-13T10:18:26.422Z,24.30
2023-05-13T10:20:54.863Z,24.50
2023-05-13T10:23:24.312Z,25.00
2023-05-13T10:25:54.934Z,25.30
2023-05-13T10:28:22.506Z,24.80
2023-05-13T10:30:53.912Z,24.60
2023-05-13T10:33:22.022Z,24.30
2023-05-13T10:36:00.810Z,24.60
2023-05-13T10:38:58.816Z,24.80
2023-05-13T10:42:00.193Z,25.40
2023-05-13T10:44:27.865Z,26.50
2023-05-13T10:46:57.045Z,28.20
2023-05-13T10:49:27.341Z,29.10
2023-05-13T10:52:08.462Z,29.60
2023-05-13T10:54:41.988Z,29.50
2023-05-13T10:57:10.517Z,28.60
2023-05-13T11:00:16.656Z,28.20
2023-05-13T11:02:44.457Z,28.10
2023-05-13T11:05:21.229Z,28.90
2023-05-13T11:07:56.947Z,29.30
2023-05-13T11:10:31.775Z,29.80
2023-05-13T11:13:14.234Z,29.70
2023-05-13T11:15:55.597Z,30.00
2023-05-13T11:18:31.368Z,30.20
2023-05-13T11:21:05.619Z,30.60
2023-05-13T11:23:58.793Z,30.50
2023-05-13T11:26:26.817Z,30.20
2023-05-13T11:29:00.268Z,29.90
2023-05-13T11:31:28.772Z,30.20
2023-05-13T11:34:17.378Z,29.80
2023-05-13T11:36:50.091Z,29.10
2023-05-13T11:39:19.952Z,29.60
2023-05-13T11:41:51.731Z,29.80
2023-05-13T11:44:22.326Z,29.40
2023-05-13T11:47:09.827Z,28.90
2023-05-13T11:49:42.204Z,29.40
2023-05-13T11:52:15.301Z,28.80
2023-05-13T11:54:53.811Z,27.60
2023-05-13T11:57:32.486Z,26.50
2023-05-13T12:00:08.723Z,27.90
2023-05-13T12:02:40.735Z,29.30
2023-05-13T12:05:11.167Z,30.80
2023-05-13T12:07:39.645Z,31.70
2023-05-13T12:10:08.140Z,32.30
2023-05-13T12:12:45.540Z,32.30
2023-05-13T12:15:22.852Z,31.60
2023-05-13T12:17:50.405Z,31.00
2023-05-13T12:41:12.994Z,29.70
2023-05-13T12:43:41.143Z,31.20
2023-05-13T12:46:08.346Z,31.40
2023-05-13T12:48:35.640Z,31.40
2023-05-13T12:51:02.756Z,31.40
2023-05-13T12:53:29.870Z,31.40
2023-05-13T12:55:57.008Z,32.00
2023-05-13T12:58:24.102Z,30.90
2023-05-13T13:00:51.449Z,30.60
2023-05-13T13:03:19.919Z,30.90
2023-05-13T13:05:48.384Z,31.30
2023-05-13T13:08:15.554Z,30.90
2023-05-13T13:10:42.760Z,29.60
2023-05-13T13:13:09.914Z,28.80
2023-05-13T13:15:37.785Z,29.40
2023-05-13T13:18:05.743Z,30.30
2023-05-13T13:20:34.462Z,30.70
2023-05-13T13:23:02.125Z,31.40
2023-05-13T13:25:29.448Z,31.10
2023-05-13T13:27:56.594Z,30.80
2023-05-13T13:30:23.870Z,30.30
2023-05-13T13:32:51.109Z,30.30
2023-05-13T13:35:18.388Z,29.60
2023-05-13T13:37:45.543Z,28.00
2023-05-13T13:40:13.476Z,27.00
2023-05-13T13:42:44.740Z,28.30
2023-05-13T13:45:13.704Z,29.50
2023-05-13T13:47:41.694Z,30.20
2023-05-13T13:50:10.450Z,27.90
2023-05-13T13:52:37.608Z,26.00
2023-05-13T13:55:05.486Z,24.90
2023-05-13T14:23:45.360Z,23.90
2023-05-13T14:26:15.333Z,23.80
2023-05-13T14:28:45.848Z,23.90
2023-05-13T14:31:12.968Z,24.10
2023-05-13T14:33:40.053Z,23.90
2023-05-13T14:36:09.414Z,23.90
2023-05-13T14:38:37.499Z,23.90
2023-05-13T14:41:04.610Z,23.80
2023-05-13T14:43:31.773Z,23.60
2023-05-13T14:45:59.026Z,23.60
2023-05-13T14:48:26.800Z,23.70
2023-05-13T14:50:54.100Z,23.40
2023-05-13T14:53:21.389Z,23.40
2023-05-13T14:55:50.644Z,23.20
2023-05-13T14:58:18.460Z,23.00
2023-05-13T15:00:45.699Z,22.90
2023-05-13T15:03:13.010Z,22.90
2023-05-13T15:05:44.599Z,22.90
2023-05-13T15:08:12.102Z,22.90
2023-05-13T15:10:39.215Z,22.90
2023-05-13T15:13:06.287Z,22.90
2023-05-13T15:15:33.642Z,22.70
2023-05-13T15:18:00.863Z,22.60
2023-05-13T15:20:28.602Z,22.50
2023-05-13T15:22:57.853Z,22.40
2023-05-13T15:25:25.090Z,22.40
2023-05-13T15:27:52.145Z,22.20
2023-05-13T15:30:19.371Z,22.30
2023-05-13T15:32:46.650Z,22.30
2023-05-13T15:35:16.404Z,22.40
2023-05-13T15:37:43.591Z,22.30
2023-05-13T15:40:12.357Z,22.40
2023-05-13T15:42:39.527Z,22.40
2023-05-13T15:45:07.556Z,22.40
2023-05-13T15:47:36.033Z,22.40
2023-05-13T15:50:05.086Z,22.30
2023-05-13T15:52:33.526Z,22.30
2023-05-13T15:55:01.028Z,22.20
2023-05-13T15:57:28.239Z,22.20
2023-05-13T15:59:55.391Z,22.10
2023-05-13T16:02:22.794Z,22.20
2023-05-13T16:04:58.501Z,22.20
2023-05-13T16:07:25.686Z,22.10
2023-05-13T16:09:52.983Z,22.10
2023-05-13T16:12:20.849Z,22.00
2023-05-13T16:14:48.056Z,22.00
2023-05-13T16:17:29.825Z,21.90
2023-05-13T16:19:57.285Z,21.80
2023-05-13T16:22:47.852Z,21.70
2023-05-13T16:25:18.950Z,21.70
2023-05-13T16:27:46.553Z,21.60
2023-05-13T16:30:13.890Z,21.50
2023-05-13T16:32:41.100Z,21.50
2023-05-13T16:35:11.599Z,21.50
2023-05-13T16:37:39.693Z,21.40
2023-05-13T16:40:10.969Z,21.40
2023-05-13T16:42:38.154Z,21.30
2023-05-13T16:45:07.298Z,21.20
2023-05-13T16:47:34.606Z,21.30
2023-05-13T16:50:01.737Z,21.40
2023-05-13T16:52:34.238Z,21.50
2023-05-13T16:55:03.061Z,21.40
2023-05-13T16:57:30.554Z,21.40
2023-05-13T16:59:58.392Z,21.20
2023-05-13T17:02:25.738Z,21.20
2023-05-13T17:04:53.412Z,21.10
2023-05-13T17:07:20.588Z,21.00
2023-05-13T17:09:48.171Z,21.00
2023-05-13T17:12:18.683Z,21.00
2023-05-13T17:14:46.148Z,21.00
2023-05-13T17:17:15.958Z,21.00
2023-05-13T17:19:47.754Z,20.90
2023-05-13T17:22:14.943Z,21.00
2023-05-13T17:24:42.153Z,20.80
2023-05-13T17:27:12.468Z,20.70
2023-05-13T17:29:42.676Z,20.60
2023-05-13T17:32:09.987Z,20.60
2023-05-13T17:34:40.426Z,20.50
2023-05-13T17:37:08.144Z,20.40
2023-05-13T17:39:35.732Z,20.40
2023-05-13T17:42:02.995Z,20.30
2023-05-13T17:44:30.359Z,20.30
2023-05-13T17:46:57.728Z,20.30
2023-05-13T17:49:27.139Z,20.20
2023-05-13T17:51:54.428Z,20.10
2023-05-13T17:54:21.659Z,20.00
2023-05-13T17:56:49.954Z,19.80
2023-05-13T17:59:17.279Z,19.80
2023-05-13T18:01:44.726Z,19.80
2023-05-13T18:04:12.244Z,19.70
2023-05-13T18:06:39.765Z,19.70
2023-05-13T18:09:08.162Z,19.60
2023-05-13T18:11:35.523Z,19.60
2023-05-13T18:14:03.199Z,19.50
2023-05-13T18:16:30.542Z,19.50
2023-05-13T18:18:57.783Z,19.40
2023-05-13T18:21:27.325Z,19.40
2023-05-13T18:23:54.859Z,19.30
2023-05-13T18:26:23.083Z,19.30
2023-05-13T18:28:50.368Z,19.20
2023-05-13T18:31:17.657Z,19.20
2023-05-13T18:33:44.859Z,19.10
2023-05-13T18:36:12.024Z,19.00
2023-05-13T18:38:39.655Z,18.90
2023-05-13T18:41:06.845Z,18.90
2023-05-13T18:43:34.166Z,18.90
2023-05-13T18:46:01.405Z,18.80
2023-05-13T18:48:28.539Z,18.80
2023-05-13T18:50:55.992Z,18.70
2023-05-13T18:53:23.114Z,18.70
2023-05-13T18:55:50.354Z,18.60
2023-05-13T18:58:17.570Z,18.50
2023-05-13T19:00:44.758Z,18.40
2023-05-13T19:03:12.253Z,18.30
2023-05-13T19:05:39.508Z,18.20
2023-05-13T19:08:08.014Z,18.10
2023-05-13T19:10:40.011Z,18.10
2023-05-13T19:13:08.019Z,18.10
2023-05-13T19:15:35.652Z,18.00
2023-05-13T19:18:03.173Z,17.90
2023-05-13T19:20:30.583Z,17.90
2023-05-13T19:22:57.912Z,17.80
2023-05-13T19:25:25.083Z,17.70
2023-05-13T19:27:52.346Z,17.60
2023-05-13T19:30:19.567Z,17.60
2023-05-13T19:32:46.981Z,17.50
2023-05-13T19:35:14.506Z,17.50
2023-05-13T19:37:41.748Z,17.40
2023-05-13T19:40:10.181Z,17.30
2023-05-13T19:42:37.884Z,17.30
2023-05-13T19:45:07.492Z,17.20
2023-05-13T19:47:37.982Z,17.10
2023-05-13T19:50:06.314Z,17.10
2023-05-13T19:52:34.036Z,16.90
2023-05-13T19:55:01.945Z,16.90
2023-05-13T19:57:30.138Z,16.80
2023-05-13T19:59:59.192Z,16.80
2023-05-13T20:02:26.351Z,16.80
2023-05-13T20:05:01.908Z,16.70
2023-05-13T20:07:32.792Z,16.70
2023-05-13T20:09:59.939Z,16.70
2023-05-13T20:12:27.214Z,16.70
2023-05-13T20:14:58.684Z,16.70
2023-05-13T20:17:27.272Z,16.70
2023-05-13T20:19:55.732Z,16.70
2023-05-13T20:22:23.333Z,16.80
2023-05-13T20:24:51.688Z,16.70
2023-05-13T20:27:19.068Z,16.80
2023-05-13T20:29:48.780Z,16.60
2023-05-13T20:32:24.447Z,16.50
2023-05-13T20:34:52.775Z,16.50
2023-05-13T20:37:23.498Z,16.50
2023-05-13T20:39:51.918Z,16.40
2023-05-13T20:42:21.502Z,16.30
2023-05-13T20:44:49.261Z,16.30
2023-05-13T20:47:16.702Z,16.20
2023-05-13T20:49:44.002Z,16.20
2023-05-13T20:52:11.501Z,16.10
2023-05-13T20:54:39.513Z,16.10
2023-05-13T20:57:06.858Z,16.00
2023-05-13T20:59:34.697Z,16.00
2023-05-13T21:02:02.070Z,15.90
2023-05-13T21:04:29.545Z,15.90
2023-05-13T21:06:57.416Z,15.90
2023-05-13T21:09:24.760Z,15.90
2023-05-13T21:11:52.084Z,15.80
2023-05-13T21:14:19.380Z,15.80
2023-05-13T21:16:46.633Z,15.80
2023-05-13T21:19:22.738Z,15.80
2023-05-13T21:21:50.755Z,15.70
2023-05-13T21:24:19.322Z,15.60
2023-05-13T21:26:47.432Z,15.50
2023-05-13T21:29:15.205Z,15.50
2023-05-13T21:31:43.488Z,15.40
2023-05-13T21:34:10.867Z,15.30
2023-05-13T21:36:41.396Z,15.30
2023-05-13T21:39:10.378Z,15.20
2023-05-13T21:41:37.857Z,15.20
2023-05-13T21:44:05.371Z,15.20
2023-05-13T21:46:32.696Z,15.10
2023-05-13T21:49:00.541Z,15.10
2023-05-13T21:51:28.937Z,15.00
2023-05-13T21:53:56.159Z,15.10
2023-05-13T21:56:23.273Z,15.00
2023-05-13T21:58:50.631Z,14.90
2023-05-13T22:01:18.352Z,14.70
2023-05-13T22:03:45.644Z,14.70
2023-05-13T22:06:13.969Z,14.60
2023-05-13T22:08:41.086Z,14.50
2023-05-13T22:11:08.354Z,14.40
2023-05-13T22:13:35.704Z,14.30
2023-05-13T22:16:02.912Z,14.20
2023-05-13T22:18:30.300Z,14.10
2023-05-13T22:20:59.538Z,14.10
2023-05-13T22:23:27.318Z,14.10
2023-05-13T22:25:54.802Z,13.90
2023-05-13T22:28:22.379Z,13.80
2023-05-13T22:30:52.734Z,13.60
2023-05-13T22:33:19.848Z,13.60
2023-05-13T22:35:47.227Z,13.60
2023-05-13T22:38:14.418Z,13.60
2023-05-13T22:40:42.748Z,13.50
2023-05-13T22:43:09.868Z,13.30
2023-05-13T22:45:37.760Z,13.10
2023-05-13T22:48:05.434Z,13.10
2023-05-13T22:50:32.901Z,12.90
2023-05-13T22:53:02.857Z,12.80
2023-05-13T22:55:30.047Z,12.80
2023-05-13T22:57:57.360Z,12.90
2023-05-13T23:00:25.013Z,12.80
2023-05-13T23:02:52.454Z,12.80
2023-05-13T23:05:19.705Z,12.80
2023-05-13T23:07:46.886Z,12.80
2023-05-13T23:10:14.021Z,12.90
2023-05-13T23:12:42.573Z,12.80
2023-05-13T23:15:11.773Z,12.70
2023-05-13T23:17:38.958Z,12.60
2023-05-13T23:20:07.037Z,12.50
2023-05-13T23:22:34.356Z,12.50
2023-05-13T23:25:01.556Z,12.40
2023-05-13T23:27:31.445Z,12.40
2023-05-13T23:29:59.486Z,12.30
2023-05-13T23:32:26.736Z,12.20
2023-05-13T23:34:53.867Z,12.10
2023-05-13T23:37:22.086Z,12.00
2023-05-13T23:39:49.248Z,12.00
2023-05-13T23:42:17.007Z,11.90
2023-05-13T23:44:44.351Z,11.90
2023-05-13T23:47:12.076Z,11.90
2023-05-13T23:49:39.253Z,11.80
2023-05-13T23:52:06.584Z,11.80
2023-05-13T23:54:34.032Z,11.80
2023-05-13T23:57:01.149Z,11.80
2023-05-13T23:59:28.307Z,11.80
